createdAt,value
2024-05-09T00:00:30.429Z,18.10
2024-05-09T00:03:02.621Z,18.10
2024-05-09T00:05:29.429Z,18.10
2024-05-09T00:07:56.207Z,18.10
2024-05-09T00:10:29.251Z,18.10
2024-05-09T00:13:07.159Z,18.10
2024-05-09T00:15:34.738Z,18.10
2024-05-09T00:18:02.259Z,18.00
2024-05-09T00:20:37.325Z,18.00
2024-05-09T00:23:07.610Z,18.10
2024-05-09T00:25:34.643Z,18.00
2024-05-09T00:28:01.439Z,18.00
2024-05-09T00:30:33.959Z,18.00
2024-05-09T00:33:03.641Z,17.90
2024-05-09T00:35:30.952Z,18.00
2024-05-09T00:37:57.822Z,18.00
2024-05-09T00:40:34.743Z,18.00
2024-05-09T00:43:05.519Z,18.00
2024-05-09T00:45:32.216Z,18.00
2024-05-09T00:47:59.172Z,18.00
2024-05-09T00:50:34.010Z,17.90
2024-05-09T00:53:03.496Z,18.00
2024-05-09T00:55:30.211Z,18.00
2024-05-09T00:57:57.019Z,18.00
2024-05-09T01:00:31.478Z,18.00
2024-05-09T01:03:05.056Z,18.00
2024-05-09T01:05:32.064Z,17.90
2024-05-09T01:07:58.839Z,17.90
2024-05-09T01:10:33.433Z,17.90
2024-05-09T01:13:01.900Z,17.90
2024-05-09T01:15:28.593Z,18.00
2024-05-09T01:17:55.546Z,18.00
2024-05-09T01:20:31.838Z,17.90
2024-05-09T01:23:06.883Z,17.90
2024-05-09T01:25:33.619Z,17.90
2024-05-09T01:28:00.284Z,17.90
2024-05-09T01:30:33.835Z,17.90
2024-05-09T01:33:03.192Z,17.90
2024-05-09T01:35:30.276Z,17.90
2024-05-09T01:37:57.053Z,17.90
2024-05-09T01:40:33.332Z,17.90
2024-05-09T01:43:04.368Z,17.90
2024-05-09T01:45:31.059Z,17.90
2024-05-09T01:47:58.010Z,17.90
2024-05-09T01:50:36.203Z,17.90
2024-05-09T01:53:06.703Z,17.80
2024-05-09T01:55:33.430Z,17.80
2024-05-09T01:58:00.078Z,17.80
2024-05-09T02:00:34.503Z,17.80
2024-05-09T02:03:06.596Z,17.80
2024-05-09T02:05:33.492Z,17.80
2024-05-09T02:08:00.298Z,17.80
2024-05-09T02:10:32.328Z,17.80
2024-05-09T02:13:01.048Z,17.80
2024-05-09T02:15:27.866Z,17.80
2024-05-09T02:17:54.755Z,17.80
2024-05-09T02:22:51.190Z,17.80
2024-05-09T02:25:17.892Z,17.80
2024-05-09T02:27:44.540Z,17.80
2024-05-09T02:30:18.770Z,17.80
2024-05-09T02:32:53.012Z,17.80
2024-05-09T02:35:19.786Z,17.80
2024-05-09T02:37:46.508Z,17.80
2024-05-09T02:40:15.004Z,17.70
2024-05-09T02:42:48.044Z,17.80
2024-05-09T02:45:14.706Z,17.80
2024-05-09T02:47:41.554Z,17.70
2024-05-09T02:50:08.465Z,17.80
2024-05-09T02:52:36.818Z,17.70
2024-05-09T02:55:03.459Z,17.80
2024-05-09T02:57:30.135Z,17.80
2024-05-09T02:59:56.787Z,17.80
2024-05-09T03:02:23.547Z,17.70
2024-05-09T03:04:50.359Z,17.70
2024-05-09T03:07:19.732Z,17.70
2024-05-09T03:09:46.785Z,17.80
2024-05-09T03:12:13.572Z,17.70
2024-05-09T03:14:40.338Z,17.70
2024-05-09T03:17:07.096Z,17.70
2024-05-09T03:19:33.832Z,17.70
2024-05-09T03:22:00.617Z,17.70
2024-05-09T03:24:27.259Z,17.70
2024-05-09T03:26:53.928Z,17.70
2024-05-09T03:29:20.611Z,17.70
2024-05-09T03:31:47.371Z,17.70
2024-05-09T03:34:14.068Z,17.70
2024-05-09T03:36:40.722Z,17.60
2024-05-09T03:39:07.378Z,17.70
2024-05-09T03:41:34.049Z,17.70
2024-05-09T03:44:00.847Z,17.70
2024-05-09T03:46:27.516Z,17.70
2024-05-09T03:48:54.240Z,17.70
2024-05-09T03:51:21.016Z,17.70
2024-05-09T03:53:47.736Z,17.70
2024-05-09T03:56:14.450Z,17.60
2024-05-09T03:58:41.119Z,17.60
2024-05-09T04:01:07.787Z,17.60
2024-05-09T04:03:34.656Z,17.60
2024-05-09T04:06:01.385Z,17.40
2024-05-09T04:08:28.112Z,17.60
2024-05-09T04:10:54.826Z,17.60
2024-05-09T04:13:21.532Z,17.60
2024-05-09T04:15:48.201Z,17.60
2024-05-09T04:18:14.929Z,17.60
2024-05-09T04:20:41.756Z,17.60
2024-05-09T04:23:09.378Z,17.60
2024-05-09T04:25:36.408Z,17.60
2024-05-09T04:28:06.908Z,17.60
2024-05-09T04:30:38.389Z,17.60
2024-05-09T04:33:09.206Z,17.60
2024-05-09T04:35:38.077Z,17.60
2024-05-09T04:38:05.097Z,17.70
2024-05-09T04:40:35.155Z,17.80
2024-05-09T04:43:03.541Z,17.80
2024-05-09T04:45:30.215Z,17.80
2024-05-09T04:48:01.720Z,17.80
2024-05-09T04:50:36.349Z,17.80
2024-05-09T04:53:05.971Z,17.80
2024-05-09T04:55:33.135Z,17.80
2024-05-09T04:57:59.923Z,17.90
2024-05-09T05:00:34.646Z,17.90
2024-05-09T05:03:03.839Z,18.00
2024-05-09T05:05:30.758Z,17.90
2024-05-09T05:07:57.476Z,17.90
2024-05-09T05:10:33.006Z,17.90
2024-05-09T05:13:02.290Z,18.00
2024-05-09T05:15:30.958Z,17.90
2024-05-09T05:17:57.797Z,17.90
2024-05-09T05:20:31.238Z,18.00
2024-05-09T05:23:00.544Z,18.00
2024-05-09T05:25:27.449Z,17.90
2024-05-09T05:27:54.125Z,17.90
2024-05-09T05:30:25.286Z,18.00
2024-05-09T05:32:56.129Z,18.00
2024-05-09T05:35:23.023Z,18.00
2024-05-09T05:37:49.769Z,18.00
2024-05-09T05:40:27.523Z,18.00
2024-05-09T05:42:59.651Z,18.00
2024-05-09T05:45:26.316Z,18.00
2024-05-09T05:47:53.280Z,18.00
2024-05-09T05:50:27.483Z,18.00
2024-05-09T05:52:59.771Z,18.00
2024-05-09T05:55:26.472Z,18.00
2024-05-09T05:57:53.164Z,18.00
2024-05-09T06:00:29.233Z,18.10
2024-05-09T06:03:02.188Z,18.00
2024-05-09T06:05:29.120Z,18.00
2024-05-09T06:07:55.981Z,18.00
2024-05-09T06:10:29.587Z,18.10
2024-05-09T06:13:01.640Z,18.10
2024-05-09T06:15:28.299Z,18.10
2024-05-09T06:17:55.234Z,18.10
2024-05-09T06:20:31.538Z,18.10
2024-05-09T06:23:02.557Z,18.00
2024-05-09T06:25:29.312Z,18.10
2024-05-09T06:27:55.963Z,18.10
2024-05-09T06:30:30.049Z,18.00
2024-05-09T06:33:04.030Z,18.00
2024-05-09T06:35:31.245Z,18.10
2024-05-09T06:37:58.216Z,18.00
2024-05-09T06:40:29.468Z,18.10
2024-05-09T06:43:02.134Z,18.10
2024-05-09T06:45:28.843Z,18.10
2024-05-09T06:47:55.629Z,18.00
2024-05-09T06:50:24.440Z,18.10
2024-05-09T06:52:54.742Z,18.00
2024-05-09T06:55:21.420Z,18.10
2024-05-09T06:57:48.125Z,18.00
2024-05-09T07:00:22.798Z,18.10
2024-05-09T07:02:57.657Z,18.10
2024-05-09T07:05:25.962Z,18.10
2024-05-09T07:07:52.803Z,18.00
2024-05-09T07:10:28.359Z,18.00
2024-05-09T07:12:59.333Z,18.10
2024-05-09T07:15:26.053Z,18.00
2024-05-09T07:17:52.877Z,18.10
2024-05-09T07:20:27.477Z,18.00
2024-05-09T07:23:00.686Z,18.00
2024-05-09T07:25:27.407Z,18.10
2024-05-09T07:27:54.083Z,18.00
2024-05-09T07:30:27.522Z,18.00
2024-05-09T07:32:59.983Z,18.00
2024-05-09T07:35:27.238Z,18.00
2024-05-09T07:37:54.208Z,18.10
2024-05-09T07:40:31.567Z,18.10
2024-05-09T07:43:02.182Z,18.10
2024-05-09T07:45:45.101Z,18.00
2024-05-09T07:49:45.373Z,18.10
2024-05-09T07:53:40.566Z,18.10
2024-05-09T07:56:12.048Z,18.10
2024-05-09T07:58:39.069Z,18.00
2024-05-09T08:01:06.064Z,18.10
2024-05-09T08:03:33.165Z,18.10
2024-05-09T08:06:00.089Z,18.10
2024-05-09T08:08:26.829Z,18.10
2024-05-09T08:10:53.669Z,18.10
2024-05-09T08:13:20.528Z,18.10
2024-05-09T08:15:49.145Z,18.10
2024-05-09T08:18:16.052Z,18.10
2024-05-09T08:20:42.801Z,18.20
2024-05-09T08:23:13.135Z,18.10
2024-05-09T08:25:40.075Z,18.10
2024-05-09T08:28:06.850Z,18.20
2024-05-09T08:30:37.145Z,18.20
2024-05-09T08:33:07.850Z,18.10
2024-05-09T08:35:34.968Z,18.20
2024-05-09T08:38:01.841Z,18.20
2024-05-09T08:40:34.414Z,18.20
2024-05-09T08:43:03.227Z,18.10
2024-05-09T08:45:30.243Z,18.20
2024-05-09T08:47:57.079Z,18.20
2024-05-09T08:50:31.841Z,18.30
2024-05-09T08:53:04.676Z,18.20
2024-05-09T08:55:31.322Z,18.20
2024-05-09T08:57:58.140Z,18.30
2024-05-09T09:00:33.826Z,18.30
2024-05-09T09:03:03.825Z,18.30
2024-05-09T09:05:30.755Z,18.20
2024-05-09T09:07:57.546Z,18.30
2024-05-09T09:10:29.916Z,18.40
2024-05-09T09:12:58.990Z,18.30
2024-05-09T09:15:25.691Z,18.30
2024-05-09T09:17:52.532Z,18.30
2024-05-09T09:20:26.256Z,18.50
2024-05-09T09:23:00.027Z,18.30
2024-05-09T09:25:26.725Z,18.30
2024-05-09T09:27:53.432Z,18.30
2024-05-09T09:30:31.748Z,18.40
2024-05-09T09:33:03.636Z,18.30
2024-05-09T09:35:30.447Z,18.30
2024-05-09T09:37:57.113Z,18.40
2024-05-09T09:40:31.042Z,18.40
2024-05-09T09:42:59.277Z,18.30
2024-05-09T09:45:25.968Z,18.40
2024-05-09T09:47:52.814Z,18.40
2024-05-09T09:50:33.227Z,18.40
2024-05-09T09:53:01.424Z,18.40
2024-05-09T09:55:28.154Z,18.40
2024-05-09T09:57:54.993Z,18.40
2024-05-09T10:00:27.161Z,18.40
2024-05-09T10:02:59.038Z,18.40
2024-05-09T10:05:26.128Z,18.40
2024-05-09T10:07:52.967Z,18.40
2024-05-09T10:10:26.972Z,18.50
2024-05-09T10:12:58.448Z,18.50
2024-05-09T10:15:25.162Z,18.50
2024-05-09T10:17:51.906Z,18.50
2024-05-09T10:20:22.089Z,18.50
2024-05-09T10:22:54.332Z,18.50
2024-05-09T10:25:21.218Z,18.50
2024-05-09T10:27:48.043Z,18.50
2024-05-09T10:30:21.508Z,18.50
2024-05-09T10:32:55.708Z,18.60
2024-05-09T10:35:22.445Z,18.60
2024-05-09T10:37:49.133Z,18.60
2024-05-09T10:42:43.954Z,18.60
2024-05-09T10:45:10.647Z,18.60
2024-05-09T10:47:37.415Z,18.60
2024-05-09T10:50:07.852Z,18.60
2024-05-09T10:52:36.903Z,18.60
2024-05-09T10:55:05.645Z,18.60
2024-05-09T10:57:32.660Z,18.60
2024-05-09T10:59:59.343Z,18.60
2024-05-09T11:02:26.138Z,18.60
2024-05-09T11:04:53.184Z,18.70
2024-05-09T11:07:20.183Z,18.70
2024-05-09T11:09:47.049Z,18.70
2024-05-09T11:12:13.840Z,18.70
2024-05-09T11:14:40.563Z,18.70
2024-05-09T11:17:07.259Z,18.70
2024-05-09T11:19:33.988Z,18.70
2024-05-09T11:22:01.246Z,18.70
2024-05-09T11:24:27.992Z,18.70
2024-05-09T11:26:54.652Z,18.70
2024-05-09T11:29:21.303Z,18.70
2024-05-09T11:31:59.998Z,18.70
2024-05-09T11:34:26.729Z,18.70
2024-05-09T11:36:53.490Z,18.80
2024-05-09T11:39:20.156Z,18.70
2024-05-09T11:41:46.821Z,18.80
2024-05-09T11:44:19.264Z,18.80
2024-05-09T11:46:49.340Z,18.80
2024-05-09T11:49:16.098Z,18.80
2024-05-09T11:51:42.911Z,18.70
2024-05-09T11:54:09.629Z,18.80
2024-05-09T11:56:36.282Z,18.80
2024-05-09T11:59:02.934Z,18.80
2024-05-09T12:01:29.718Z,18.90
2024-05-09T12:03:56.689Z,18.80
2024-05-09T12:06:23.567Z,18.90
2024-05-09T12:08:50.240Z,18.80
2024-05-09T12:11:17.046Z,18.80
2024-05-09T12:13:43.758Z,18.90
2024-05-09T12:16:10.481Z,18.90
2024-05-09T12:18:37.303Z,18.90
2024-05-09T12:21:04.010Z,18.90
2024-05-09T12:23:30.640Z,18.90
2024-05-09T12:25:57.327Z,18.90
2024-05-09T12:28:24.165Z,18.90
2024-05-09T12:30:51.003Z,18.90
2024-05-09T12:33:17.813Z,18.90
2024-05-09T12:35:46.692Z,18.90
2024-05-09T12:38:15.298Z,19.00
2024-05-09T12:40:42.343Z,18.90
2024-05-09T12:43:10.281Z,18.90
2024-05-09T12:45:38.286Z,19.00
2024-05-09T12:48:05.279Z,18.90
2024-05-09T12:50:34.117Z,19.00
2024-05-09T12:53:02.184Z,18.90
2024-05-09T12:55:33.960Z,19.00
2024-05-09T12:58:07.686Z,19.00
2024-05-09T13:00:34.771Z,19.00
2024-05-09T13:03:01.764Z,19.00
2024-05-09T13:05:29.508Z,19.00
2024-05-09T13:07:57.050Z,19.00
2024-05-09T13:10:30.846Z,19.00
2024-05-09T13:12:59.578Z,19.00
2024-05-09T13:15:26.683Z,19.00
2024-05-09T13:17:53.415Z,19.00
2024-05-09T13:20:29.080Z,19.00
2024-05-09T13:22:59.608Z,19.00
2024-05-09T13:25:26.283Z,19.00
2024-05-09T13:27:52.980Z,19.00
2024-05-09T13:30:28.757Z,19.00
2024-05-09T13:33:02.288Z,19.10
2024-05-09T13:35:29.101Z,19.10
2024-05-09T13:37:55.806Z,19.10
2024-05-09T13:40:31.739Z,19.10
2024-05-09T13:43:01.492Z,19.10
2024-05-09T13:45:28.311Z,19.10
2024-05-09T13:47:55.062Z,19.10
2024-05-09T13:50:30.933Z,19.10
2024-05-09T13:53:01.682Z,19.10
2024-05-09T13:55:28.517Z,19.10
2024-05-09T13:57:55.201Z,19.10
2024-05-09T14:00:37.319Z,19.10
2024-05-09T14:03:08.759Z,19.20
2024-05-09T14:05:35.728Z,19.20
2024-05-09T14:08:02.528Z,19.20
2024-05-09T14:10:31.568Z,19.10
2024-05-09T14:12:59.118Z,19.10
2024-05-09T14:15:25.840Z,19.20
2024-05-09T14:17:52.511Z,19.20
2024-05-09T14:20:28.494Z,19.20
2024-05-09T14:22:58.266Z,19.20
2024-05-09T14:25:25.002Z,19.20
2024-05-09T14:27:51.809Z,19.20
2024-05-09T14:30:26.179Z,19.20
2024-05-09T14:33:00.935Z,19.20
2024-05-09T14:35:27.737Z,19.20
2024-05-09T14:37:54.427Z,19.20
2024-05-09T14:40:35.377Z,19.20
2024-05-09T14:43:07.461Z,19.20
2024-05-09T14:45:34.253Z,19.20
2024-05-09T14:48:01.149Z,19.30
2024-05-09T14:50:35.019Z,19.20
2024-05-09T14:53:04.951Z,19.20
2024-05-09T14:55:31.690Z,19.30
2024-05-09T14:57:58.487Z,19.20
2024-05-09T15:00:29.195Z,19.20
2024-05-09T15:03:00.336Z,19.30
2024-05-09T15:05:27.312Z,19.30
2024-05-09T15:07:54.053Z,19.30
2024-05-09T15:10:27.313Z,19.30
2024-05-09T15:13:00.886Z,19.30
2024-05-09T15:15:27.610Z,19.30
2024-05-09T15:17:54.435Z,19.30
2024-05-09T15:20:28.011Z,19.30
2024-05-09T15:23:01.204Z,19.30
2024-05-09T15:25:28.001Z,19.30
2024-05-09T15:27:54.788Z,19.30
2024-05-09T15:30:29.901Z,19.30
2024-05-09T15:32:59.137Z,19.40
2024-05-09T15:35:25.844Z,19.40
2024-05-09T15:37:52.490Z,19.40
2024-05-09T15:40:26.825Z,19.40
2024-05-09T15:43:02.599Z,19.40
2024-05-09T15:45:29.577Z,19.30
2024-05-09T15:47:56.595Z,19.40
2024-05-09T15:50:32.418Z,19.40
2024-05-09T15:53:04.461Z,19.30
2024-05-09T15:55:31.105Z,19.40
2024-05-09T15:57:57.979Z,19.40
2024-05-09T16:00:33.827Z,19.30
2024-05-09T16:03:04.908Z,19.40
2024-05-09T16:05:31.734Z,19.30
2024-05-09T16:07:58.469Z,19.40
2024-05-09T16:10:30.103Z,19.40
2024-05-09T16:12:59.503Z,19.40
2024-05-09T16:15:26.235Z,19.40
2024-05-09T16:17:53.017Z,19.30
2024-05-09T16:20:29.971Z,19.40
2024-05-09T16:23:05.123Z,19.40
2024-05-09T16:25:31.787Z,19.40
2024-05-09T16:27:58.566Z,19.40
2024-05-09T16:30:31.995Z,19.30
2024-05-09T16:33:02.144Z,19.40
2024-05-09T16:35:29.026Z,19.40
2024-05-09T16:37:55.708Z,19.40
2024-05-09T16:40:30.209Z,19.40
2024-05-09T16:43:04.100Z,19.30
2024-05-09T16:45:31.066Z,19.40
2024-05-09T16:47:57.930Z,19.30
2024-05-09T16:50:29.510Z,19.30
2024-05-09T16:52:59.620Z,19.40
2024-05-09T16:55:26.420Z,19.30
2024-05-09T16:57:53.168Z,19.20
2024-05-09T17:00:30.934Z,19.20
2024-05-09T17:03:05.940Z,19.30
2024-05-09T17:05:33.202Z,19.40
2024-05-09T17:08:00.082Z,19.40
2024-05-09T17:10:32.271Z,19.40
2024-05-09T17:13:01.083Z,19.40
2024-05-09T17:15:27.831Z,19.40
2024-05-09T17:17:54.581Z,19.40
2024-05-09T17:20:29.437Z,19.40
2024-05-09T17:23:00.478Z,19.40
2024-05-09T17:25:27.182Z,19.40
2024-05-09T17:27:54.021Z,19.40
2024-05-09T17:30:28.816Z,19.40
2024-05-09T17:33:01.547Z,19.40
2024-05-09T17:35:28.454Z,19.40
2024-05-09T17:37:55.108Z,19.40
2024-05-09T17:40:30.731Z,19.40
2024-05-09T17:43:01.466Z,19.40
2024-05-09T17:45:28.350Z,19.40
2024-05-09T17:47:55.326Z,19.40
2024-05-09T17:50:27.982Z,19.40
2024-05-09T17:53:01.143Z,19.40
2024-05-09T17:55:27.879Z,19.40
2024-05-09T17:57:54.625Z,19.40
2024-05-09T18:00:29.525Z,19.40
2024-05-09T18:03:04.064Z,19.40
2024-05-09T18:05:31.048Z,19.40
2024-05-09T18:08:01.622Z,19.40
2024-05-09T18:10:35.226Z,19.40
2024-05-09T18:13:04.992Z,19.40
2024-05-09T18:15:31.786Z,19.40
2024-05-09T18:17:58.573Z,19.40
2024-05-09T18:20:36.067Z,19.40
2024-05-09T18:23:08.308Z,19.40
2024-05-09T18:25:35.135Z,19.40
2024-05-09T18:28:02.054Z,19.40
2024-05-09T18:30:34.390Z,19.40
2024-05-09T18:33:03.189Z,19.40
2024-05-09T18:35:30.067Z,19.40
2024-05-09T18:37:56.742Z,19.30
2024-05-09T18:42:53.102Z,19.30
2024-05-09T18:45:19.944Z,19.40
2024-05-09T18:47:46.669Z,19.30
2024-05-09T18:50:20.479Z,19.40
2024-05-09T18:52:54.392Z,19.50
2024-05-09T18:55:21.129Z,19.30
2024-05-09T18:57:47.878Z,19.30
2024-05-09T19:00:26.657Z,19.30
2024-05-09T19:03:01.952Z,19.40
2024-05-09T19:05:28.881Z,19.30
2024-05-09T19:07:55.634Z,19.30
2024-05-09T19:10:25.901Z,19.30
2024-05-09T19:12:55.539Z,19.30
2024-05-09T19:15:22.210Z,19.30
2024-05-09T19:17:48.974Z,19.30
2024-05-09T19:20:24.912Z,19.30
2024-05-09T19:22:55.488Z,19.30
2024-05-09T19:25:22.157Z,19.30
2024-05-09T19:27:49.026Z,19.30
2024-05-09T19:30:25.076Z,19.30
2024-05-09T19:33:00.598Z,19.30
2024-05-09T19:35:27.361Z,19.30
2024-05-09T19:37:54.053Z,19.30
2024-05-09T19:40:28.641Z,19.30
2024-05-09T19:43:02.564Z,19.30
2024-05-09T19:45:30.029Z,19.30
2024-05-09T19:47:56.887Z,19.30
2024-05-09T19:50:31.894Z,19.30
2024-05-09T19:53:06.388Z,19.30
2024-05-09T19:55:33.043Z,19.30
2024-05-09T19:58:01.627Z,19.30
2024-05-09T20:00:35.678Z,19.30
2024-05-09T20:03:04.037Z,19.30
2024-05-09T20:05:31.329Z,19.20
2024-05-09T20:07:58.192Z,19.20
2024-05-09T20:10:31.459Z,19.30
2024-05-09T20:13:00.487Z,19.20
2024-05-09T20:15:27.333Z,19.30
2024-05-09T20:17:54.475Z,19.20
2024-05-09T20:20:32.099Z,19.20
2024-05-09T20:23:03.839Z,19.30
2024-05-09T20:25:30.488Z,19.20
2024-05-09T20:27:57.194Z,19.20
2024-05-09T20:30:31.239Z,19.30
2024-05-09T20:33:00.214Z,19.20
2024-05-09T20:35:27.158Z,19.20
2024-05-09T20:37:53.838Z,19.20
2024-05-09T20:40:28.403Z,19.20
2024-05-09T20:42:58.959Z,19.20
2024-05-09T20:45:25.859Z,19.20
2024-05-09T20:47:52.684Z,19.20
2024-05-09T20:50:28.171Z,19.20
2024-05-09T20:53:02.713Z,19.30
2024-05-09T20:55:29.453Z,19.20
2024-05-09T20:57:56.198Z,19.20
2024-05-09T21:00:30.012Z,19.20
2024-05-09T21:03:04.590Z,19.20
2024-05-09T21:05:31.586Z,19.20
2024-05-09T21:07:58.362Z,19.20
2024-05-09T21:10:27.042Z,19.20
2024-05-09T21:12:54.145Z,19.20
2024-05-09T21:15:20.832Z,19.20
2024-05-09T21:17:47.583Z,19.20
2024-05-09T21:20:17.296Z,19.20
2024-05-09T21:22:47.312Z,19.20
2024-05-09T21:25:19.889Z,19.20
2024-05-09T21:27:46.628Z,19.20
2024-05-09T21:30:18.912Z,19.20
2024-05-09T21:32:54.725Z,19.20
2024-05-09T21:35:21.443Z,19.10
2024-05-09T21:37:48.102Z,19.20
2024-05-09T21:40:24.251Z,19.20
2024-05-09T21:42:57.992Z,19.10
2024-05-09T21:45:24.684Z,19.20
2024-05-09T21:47:51.471Z,19.10
2024-05-09T21:50:22.951Z,19.20
2024-05-09T21:52:55.006Z,19.20
2024-05-09T21:55:21.721Z,19.20
2024-05-09T21:57:48.502Z,19.10
2024-05-09T22:00:28.067Z,19.20
2024-05-09T22:03:01.802Z,19.10
2024-05-09T22:05:28.688Z,19.20
2024-05-09T22:07:55.416Z,19.10
2024-05-09T22:10:26.507Z,19.10
2024-05-09T22:12:59.042Z,19.10
2024-05-09T22:15:25.762Z,19.10
2024-05-09T22:17:52.589Z,19.10
2024-05-09T22:20:28.572Z,19.10
2024-05-09T22:23:01.231Z,19.10
2024-05-09T22:25:30.488Z,19.10
2024-05-09T22:27:57.762Z,19.10
2024-05-09T22:30:33.139Z,19.10
2024-05-09T22:33:03.746Z,19.10
2024-05-09T22:35:30.544Z,19.10
2024-05-09T22:37:57.219Z,19.00
2024-05-09T22:40:32.771Z,19.00
2024-05-09T22:43:08.673Z,19.00
2024-05-09T22:45:35.469Z,19.10
2024-05-09T22:48:02.394Z,19.10
2024-05-09T22:50:33.197Z,19.00
2024-05-09T22:53:00.424Z,19.00
2024-05-09T22:55:27.081Z,19.10
2024-05-09T22:57:53.814Z,19.00
2024-05-09T23:00:29.190Z,19.00
2024-05-09T23:03:02.267Z,19.00
2024-05-09T23:05:29.454Z,19.00
2024-05-09T23:07:56.383Z,19.00
2024-05-09T23:10:31.031Z,18.90
2024-05-09T23:13:02.276Z,18.90
2024-05-09T23:15:29.079Z,19.00
2024-05-09T23:17:56.065Z,18.90
2024-05-09T23:20:33.232Z,18.90
2024-05-09T23:23:04.644Z,18.90
2024-05-09T23:25:31.316Z,18.90
2024-05-09T23:27:58.063Z,18.90
2024-05-09T23:30:33.762Z,18.90
2024-05-09T23:33:04.815Z,18.90
2024-05-09T23:35:31.586Z,18.90
2024-05-09T23:37:58.248Z,18.90
2024-05-09T23:40:36.372Z,18.90
2024-05-09T23:43:06.330Z,18.80
2024-05-09T23:45:33.308Z,18.60
2024-05-09T23:48:00.278Z,18.80
2024-05-09T23:50:34.246Z,18.70
2024-05-09T23:53:04.086Z,18.70
2024-05-09T23:55:30.795Z,18.70
2024-05-09T23:57:57.490Z,18.70
